Time;durP1;ratioP1;P1;durP2;ratioP2;P2;SDS_P1;SDS_P2;PMS_P1;PMS_P2;Temp;Humidity;BMP_temperature;BMP_pressure;BME280_temperature;BME280_humidity;BME280_pressure;Samples;Min_cycle;Max_cycle;Signal;HPM_P1;HPM_P2
2024/01/30 00:01:43;;;;;;;33.92;28.27;;;5.60;99.90;;;;;;5029850;28;20032;-83
2024/01/30 00:04:08;;;;;;;35.38;29.35;;;5.70;99.90;;;;;;5049299;28;20044;-83
2024/01/30 00:06:34;;;;;;;39.33;29.42;;;5.70;99.90;;;;;;5027522;28;20075;-83
2024/01/30 00:09:00;;;;;;;33.72;28.70;;;5.70;99.90;;;;;;5049166;28;20044;-83
2024/01/30 00:11:25;;;;;;;34.38;29.75;;;5.70;99.90;;;;;;5065584;28;20048;-83
2024/01/30 00:13:52;;;;;;;37.95;29.45;;;5.70;99.90;;;;;;5027660;28;20498;-83
2024/01/30 00:16:23;;;;;;;35.28;29.35;;;5.70;99.90;;;;;;5047594;28;20119;-82
2024/01/30 00:18:52;;;;;;;36.00;29.25;;;5.70;99.90;;;;;;5064980;28;20105;-83
2024/01/30 00:21:18;;;;;;;37.35;28.73;;;5.70;99.90;;;;;;5031982;28;20048;-83
2024/01/30 00:23:44;;;;;;;36.03;29.58;;;5.70;99.90;;;;;;5032026;28;20040;-83
2024/01/30 00:26:09;;;;;;;38.25;31.02;;;5.70;99.90;;;;;;5044815;28;20082;-84
2024/01/30 00:28:35;;;;;;;38.05;30.70;;;5.70;99.90;;;;;;5042573;28;20409;-83
2024/01/30 00:31:01;;;;;;;38.10;30.17;;;5.70;99.90;;;;;;5059860;28;20036;-83
2024/01/30 00:33:26;;;;;;;35.42;29.20;;;5.70;99.90;;;;;;5048267;28;20041;-83
2024/01/30 00:35:52;;;;;;;36.85;30.48;;;5.70;99.90;;;;;;5046662;28;20032;-84
2024/01/30 00:38:18;;;;;;;36.17;29.95;;;5.60;99.90;;;;;;5045154;28;20051;-83
2024/01/30 00:40:43;;;;;;;38.20;31.35;;;5.60;99.90;;;;;;5065762;28;20423;-83
2024/01/30 00:43:09;;;;;;;36.25;30.45;;;5.60;99.90;;;;;;5028691;28;20033;-83
2024/01/30 00:45:35;;;;;;;36.80;29.55;;;5.50;99.90;;;;;;5029860;28;20114;-83
2024/01/30 00:48:00;;;;;;;37.78;30.08;;;5.50;99.90;;;;;;5028427;28;20485;-83
2024/01/30 00:50:26;;;;;;;37.90;31.50;;;5.50;99.90;;;;;;5049105;28;20040;-83
2024/01/30 00:52:51;;;;;;;37.70;30.95;;;5.60;99.90;;;;;;5027584;28;20086;-83
2024/01/30 00:55:17;;;;;;;37.90;31.92;;;5.60;99.90;;;;;;5069186;28;20085;-83
2024/01/30 00:57:43;;;;;;;38.97;31.17;;;5.60;99.90;;;;;;5052328;28;20392;-83
2024/01/30 01:00:09;;;;;;;39.05;31.25;;;5.60;99.90;;;;;;5028235;28;20066;-83
2024/01/30 01:02:35;;;;;;;41.28;32.00;;;5.50;99.90;;;;;;5030344;28;20542;-83
2024/01/30 01:05:02;;;;;;;36.83;30.13;;;5.60;99.90;;;;;;5051291;28;20040;-83
2024/01/30 01:07:27;;;;;;;35.70;29.98;;;5.50;99.90;;;;;;5053367;28;20412;-83
2024/01/30 01:09:53;;;;;;;40.28;30.25;;;5.50;99.90;;;;;;5047675;28;20041;-83
2024/01/30 01:12:19;;;;;;;37.92;29.88;;;5.40;99.90;;;;;;5063276;28;20049;-83
2024/01/30 01:14:45;;;;;;;38.92;29.42;;;5.40;99.90;;;;;;5065708;28;20051;-83
2024/01/30 01:17:11;;;;;;;33.92;28.55;;;5.30;99.90;;;;;;5045571;28;20032;-83
2024/01/30 01:19:37;;;;;;;38.30;29.83;;;5.20;99.90;;;;;;5050650;28;20041;-83
2024/01/30 01:22:03;;;;;;;35.17;28.92;;;5.10;99.90;;;;;;5052585;28;20047;-84
2024/01/30 01:24:31;;;;;;;36.83;30.88;;;5.00;99.90;;;;;;5034130;28;20044;-84
2024/01/30 01:26:58;;;;;;;38.10;31.60;;;5.10;99.90;;;;;;5033321;28;20044;-84
2024/01/30 01:29:28;;;;;;;41.10;31.45;;;5.20;99.90;;;;;;5067156;28;20128;-84
2024/01/30 01:31:57;;;;;;;41.83;32.58;;;5.20;99.90;;;;;;5035203;28;20127;-84
2024/01/30 01:34:24;;;;;;;40.22;32.75;;;5.20;99.90;;;;;;5048943;28;20500;-84
2024/01/30 01:36:50;;;;;;;40.97;32.00;;;5.20;99.90;;;;;;5048374;28;20472;-84
2024/01/30 01:39:16;;;;;;;39.30;31.02;;;5.20;99.90;;;;;;5032075;28;20127;-84
2024/01/30 01:41:42;;;;;;;38.33;31.73;;;5.20;99.90;;;;;;5048689;28;20079;-84
2024/01/30 01:44:08;;;;;;;39.35;31.08;;;5.20;99.90;;;;;;5049822;28;20036;-84
2024/01/30 01:46:34;;;;;;;45.22;32.30;;;5.20;99.90;;;;;;5035241;28;20044;-85
2024/01/30 01:49:05;;;;;;;44.15;32.20;;;5.20;99.90;;;;;;5049572;28;20048;-84
2024/01/30 01:51:33;;;;;;;42.63;33.00;;;5.30;99.90;;;;;;5044501;28;20082;-84
2024/01/30 01:54:03;;;;;;;40.55;32.15;;;5.30;99.90;;;;;;5049372;28;20040;-84
2024/01/30 01:56:30;;;;;;;44.60;33.38;;;5.30;99.90;;;;;;5050981;28;20048;-84
2024/01/30 01:59:00;;;;;;;41.55;31.80;;;5.40;99.90;;;;;;5046233;28;20120;-84
2024/01/30 02:01:28;;;;;;;40.85;33.47;;;5.40;99.90;;;;;;5029488;28;20098;-84
2024/01/30 02:03:54;;;;;;;38.33;31.88;;;5.40;99.90;;;;;;5027851;28;20040;-84
2024/01/30 02:06:20;;;;;;;40.33;32.75;;;5.40;99.90;;;;;;5059748;28;20442;-84
2024/01/30 02:08:45;;;;;;;40.35;33.25;;;5.40;99.90;;;;;;5049495;28;20090;-84
2024/01/30 02:11:11;;;;;;;39.40;32.75;;;5.40;99.90;;;;;;5030668;28;20816;-84
2024/01/30 02:13:37;;;;;;;39.15;32.63;;;5.40;99.90;;;;;;5047250;28;20127;-84
2024/01/30 02:16:03;;;;;;;42.13;32.10;;;5.50;99.90;;;;;;5051429;28;20087;-85
2024/01/30 02:18:29;;;;;;;39.00;32.92;;;5.50;99.90;;;;;;5051852;28;20110;-84
2024/01/30 02:20:58;;;;;;;41.65;32.13;;;5.50;99.90;;;;;;5033084;28;20044;-84
2024/01/30 02:23:27;;;;;;;42.30;32.33;;;5.50;99.90;;;;;;5051373;28;20438;-84
2024/01/30 02:25:53;;;;;;;41.72;30.67;;;5.60;99.90;;;;;;5048488;28;20039;-84
2024/01/30 02:28:19;;;;;;;38.63;32.45;;;5.50;99.90;;;;;;5034342;28;20048;-84
2024/01/30 02:30:46;;;;;;;39.08;32.42;;;5.50;99.90;;;;;;5063961;28;20090;-84
2024/01/30 02:33:12;;;;;;;41.58;31.88;;;5.50;99.90;;;;;;5041653;28;20071;-84
2024/01/30 02:35:38;;;;;;;42.72;33.17;;;5.50;99.90;;;;;;5035521;28;20123;-84
2024/01/30 02:38:04;;;;;;;42.70;33.70;;;5.60;99.90;;;;;;5032885;28;20079;-84
2024/01/30 02:40:31;;;;;;;39.83;32.17;;;5.60;99.90;;;;;;5029762;28;20044;-84
2024/01/30 02:42:58;;;;;;;42.33;33.03;;;5.60;99.90;;;;;;5043017;28;20042;-84
2024/01/30 02:45:24;;;;;;;41.67;32.03;;;5.60;99.90;;;;;;5032237;28;20066;-85
2024/01/30 02:47:50;;;;;;;41.55;32.65;;;5.70;99.90;;;;;;5033714;28;20603;-84
2024/01/30 02:50:16;;;;;;;43.17;33.88;;;5.70;99.90;;;;;;5068222;28;20044;-84
2024/01/30 02:52:43;;;;;;;39.80;32.05;;;5.70;99.90;;;;;;5030991;28;20040;-84
2024/01/30 02:55:09;;;;;;;42.00;33.15;;;5.70;99.90;;;;;;5047119;28;20048;-84
2024/01/30 02:57:35;;;;;;;39.38;32.08;;;5.70;99.90;;;;;;5033164;28;20048;-84
2024/01/30 03:00:01;;;;;;;37.00;31.67;;;5.80;99.90;;;;;;5050068;28;20032;-85
2024/01/30 03:02:26;;;;;;;38.45;32.20;;;5.80;99.90;;;;;;5049275;28;20039;-84
2024/01/30 03:04:52;;;;;;;40.38;31.80;;;5.80;99.90;;;;;;5028177;28;20511;-84
2024/01/30 03:07:18;;;;;;;38.58;31.98;;;5.80;99.90;;;;;;5047621;28;20123;-84
2024/01/30 03:09:44;;;;;;;39.42;32.20;;;5.80;99.90;;;;;;5045480;28;20044;-84
2024/01/30 03:12:10;;;;;;;35.65;31.50;;;5.80;99.90;;;;;;5047169;28;20036;-84
2024/01/30 03:14:36;;;;;;;35.45;28.23;;;5.80;99.90;;;;;;5043206;28;20488;-84
2024/01/30 03:17:02;;;;;;;35.47;29.95;;;5.90;99.90;;;;;;5043194;28;20076;-84
2024/01/30 03:19:28;;;;;;;40.60;32.15;;;5.90;99.90;;;;;;5049522;28;20067;-85
2024/01/30 03:21:54;;;;;;;37.00;31.38;;;6.00;99.90;;;;;;5026498;28;20049;-84
2024/01/30 03:24:19;;;;;;;40.47;31.45;;;6.00;99.90;;;;;;5066716;28;20088;-84
2024/01/30 03:26:45;;;;;;;41.38;32.58;;;6.00;99.90;;;;;;5048367;28;20508;-84
2024/01/30 03:29:10;;;;;;;35.50;30.25;;;6.10;99.90;;;;;;5030308;28;20040;-84
2024/01/30 03:31:36;;;;;;;34.70;30.42;;;6.10;99.90;;;;;;5044332;28;20496;-84
2024/01/30 03:34:02;;;;;;;37.10;30.65;;;6.10;99.90;;;;;;5030843;28;20072;-84
2024/01/30 03:36:28;;;;;;;37.65;30.35;;;6.10;99.90;;;;;;5032322;28;20048;-84
2024/01/30 03:38:54;;;;;;;42.03;30.75;;;6.10;99.90;;;;;;5060799;28;20112;-84
2024/01/30 03:41:19;;;;;;;40.15;30.45;;;6.20;99.90;;;;;;5043757;28;20113;-84
2024/01/30 03:43:46;;;;;;;37.45;31.85;;;6.20;99.90;;;;;;5049630;28;20044;-85
2024/01/30 03:46:12;;;;;;;34.78;28.40;;;6.30;99.90;;;;;;5029614;28;20503;-85
2024/01/30 03:48:38;;;;;;;35.42;28.48;;;6.30;99.90;;;;;;5030118;28;20041;-84
2024/01/30 03:51:04;;;;;;;37.13;29.63;;;6.30;99.90;;;;;;5041162;28;20071;-85
2024/01/30 03:53:30;;;;;;;38.25;29.00;;;6.20;99.90;;;;;;5050276;28;20056;-84
2024/01/30 03:55:56;;;;;;;35.78;29.45;;;6.30;99.90;;;;;;5028317;28;20094;-85
2024/01/30 03:58:21;;;;;;;35.85;29.67;;;6.30;99.90;;;;;;5028929;28;20469;-84
2024/01/30 04:00:47;;;;;;;34.38;27.48;;;6.20;99.90;;;;;;5027327;28;20124;-84
2024/01/30 04:03:15;;;;;;;33.63;27.13;;;6.20;99.90;;;;;;5053604;28;20051;-84
2024/01/30 04:05:41;;;;;;;31.63;27.48;;;6.20;99.90;;;;;;5044127;28;20468;-85
2024/01/30 04:08:07;;;;;;;31.42;27.17;;;6.30;99.90;;;;;;5047175;28;20505;-85
2024/01/30 04:10:33;;;;;;;31.92;27.98;;;6.30;99.90;;;;;;5032829;28;20055;-84
2024/01/30 04:12:59;;;;;;;32.00;27.35;;;6.30;99.90;;;;;;5028910;28;20500;-85
2024/01/30 04:15:25;;;;;;;33.03;28.63;;;6.40;99.90;;;;;;5031554;28;20136;-85
2024/01/30 04:17:51;;;;;;;30.35;27.05;;;6.40;99.90;;;;;;5048962;28;20123;-85
2024/01/30 04:20:17;;;;;;;30.45;27.15;;;6.50;99.90;;;;;;5047921;28;20055;-85
2024/01/30 04:22:47;;;;;;;32.90;28.15;;;6.50;99.90;;;;;;5024592;28;20047;-85
2024/01/30 04:25:13;;;;;;;33.78;29.02;;;6.60;99.90;;;;;;5023061;28;20043;-85
2024/01/30 04:27:39;;;;;;;31.95;27.17;;;6.50;99.90;;;;;;5032374;28;20041;-85
2024/01/30 04:30:05;;;;;;;31.52;27.05;;;6.60;99.90;;;;;;5049169;28;20048;-85
2024/01/30 04:32:32;;;;;;;31.02;27.45;;;6.60;99.90;;;;;;5052493;28;20036;-84
2024/01/30 04:34:58;;;;;;;31.27;26.50;;;6.60;99.90;;;;;;5052689;28;20086;-85
2024/01/30 04:37:23;;;;;;;31.27;26.08;;;6.70;99.90;;;;;;5050748;28;20041;-85
2024/01/30 04:39:49;;;;;;;30.90;26.25;;;6.70;99.90;;;;;;5043680;28;20044;-85
2024/01/30 04:42:15;;;;;;;32.35;26.88;;;6.70;99.90;;;;;;5049399;28;20082;-85
2024/01/30 04:44:40;;;;;;;29.55;24.65;;;6.70;99.90;;;;;;5054041;28;20072;-85
2024/01/30 04:47:08;;;;;;;32.17;25.77;;;6.70;99.90;;;;;;5036906;28;20040;-85
2024/01/30 04:49:34;;;;;;;30.88;25.83;;;6.80;99.90;;;;;;5033915;28;20040;-85
2024/01/30 04:52:00;;;;;;;28.83;24.33;;;6.80;99.90;;;;;;5049140;28;20091;-85
2024/01/30 04:54:26;;;;;;;30.75;24.95;;;6.80;99.90;;;;;;5025112;28;20672;-84
2024/01/30 04:56:51;;;;;;;29.45;26.08;;;6.80;99.90;;;;;;5033346;28;20044;-84
2024/01/30 04:59:18;;;;;;;30.58;25.23;;;6.90;99.90;;;;;;5046610;28;20131;-85
2024/01/30 05:01:43;;;;;;;30.55;25.58;;;6.90;99.90;;;;;;5051231;28;20037;-85
2024/01/30 05:04:09;;;;;;;29.88;24.38;;;6.90;99.90;;;;;;5044660;28;20036;-85
2024/01/30 05:06:35;;;;;;;28.65;23.17;;;6.90;99.90;;;;;;5032291;28;20381;-84
2024/01/30 05:09:01;;;;;;;28.48;23.17;;;7.00;99.90;;;;;;5032954;28;20040;-84
2024/01/30 05:11:26;;;;;;;26.90;23.10;;;7.00;99.90;;;;;;5035605;28;20131;-84
2024/01/30 05:13:52;;;;;;;28.67;24.65;;;7.00;99.90;;;;;;5045429;28;20041;-85
2024/01/30 05:16:18;;;;;;;28.85;23.33;;;7.00;99.90;;;;;;5031849;28;20043;-84
2024/01/30 05:18:43;;;;;;;27.75;24.35;;;7.00;99.90;;;;;;5067393;28;20090;-85
2024/01/30 05:21:10;;;;;;;27.58;23.35;;;7.00;99.90;;;;;;5029773;28;20041;-85
2024/01/30 05:23:36;;;;;;;28.13;23.85;;;7.00;99.90;;;;;;5031279;28;20075;-84
2024/01/30 05:26:02;;;;;;;27.73;22.13;;;7.00;99.90;;;;;;5045994;28;20090;-84
2024/01/30 05:28:29;;;;;;;25.73;22.48;;;7.10;99.90;;;;;;5024968;28;20033;-84
2024/01/30 05:30:55;;;;;;;28.70;22.88;;;7.10;99.90;;;;;;5030238;28;20127;-85
2024/01/30 05:33:21;;;;;;;28.83;23.48;;;7.10;99.90;;;;;;5035865;28;20461;-85
2024/01/30 05:35:47;;;;;;;27.25;22.08;;;7.10;99.90;;;;;;5040499;28;20072;-84
2024/01/30 05:38:12;;;;;;;27.63;22.35;;;7.20;99.90;;;;;;5030133;28;20040;-85
2024/01/30 05:40:38;;;;;;;27.85;21.88;;;7.10;99.90;;;;;;5035121;28;20025;-84
2024/01/30 05:43:03;;;;;;;26.10;22.00;;;7.10;99.90;;;;;;5031467;28;20032;-84
2024/01/30 05:45:29;;;;;;;28.88;21.90;;;7.10;99.90;;;;;;5046640;28;20048;-84
2024/01/30 05:47:55;;;;;;;27.75;23.17;;;7.10;99.90;;;;;;5033849;28;20041;-84
2024/01/30 05:50:23;;;;;;;26.00;21.52;;;7.20;99.90;;;;;;5021194;28;20041;-85
2024/01/30 05:52:48;;;;;;;26.35;22.95;;;7.20;99.90;;;;;;5029438;28;20041;-84
2024/01/30 05:55:14;;;;;;;25.70;22.30;;;7.10;99.90;;;;;;5047861;28;20543;-84
2024/01/30 05:57:40;;;;;;;24.08;21.45;;;7.10;99.90;;;;;;5021815;28;20094;-84
2024/01/30 06:00:06;;;;;;;30.52;22.35;;;7.20;99.90;;;;;;5051353;28;20497;-84
2024/01/30 06:02:31;;;;;;;25.25;21.98;;;7.20;99.90;;;;;;5045132;28;20040;-84
2024/01/30 06:04:58;;;;;;;27.48;22.92;;;7.10;99.90;;;;;;5031440;28;20098;-85
2024/01/30 06:07:23;;;;;;;27.35;21.85;;;7.10;99.90;;;;;;5043952;28;20079;-84
2024/01/30 06:09:49;;;;;;;27.02;21.80;;;7.10;99.90;;;;;;5045753;28;20619;-84
2024/01/30 06:12:15;;;;;;;27.23;22.98;;;7.10;99.90;;;;;;5031255;28;20036;-85
2024/01/30 06:14:42;;;;;;;26.60;22.10;;;7.20;99.90;;;;;;5044680;28;20047;-84
2024/01/30 06:17:08;;;;;;;26.02;22.73;;;7.20;99.90;;;;;;5044523;28;20059;-85
2024/01/30 06:19:34;;;;;;;25.45;22.00;;;7.30;99.90;;;;;;5063759;28;20060;-84
2024/01/30 06:21:59;;;;;;;25.02;22.23;;;7.30;99.90;;;;;;5043594;28;20484;-84
2024/01/30 06:24:25;;;;;;;28.40;23.77;;;7.30;99.90;;;;;;5046192;28;20032;-85
2024/01/30 06:26:50;;;;;;;24.73;21.88;;;7.40;99.90;;;;;;5030011;28;20123;-85
2024/01/30 06:29:16;;;;;;;27.23;21.60;;;7.40;99.90;;;;;;5035343;28;20043;-85
2024/01/30 06:31:42;;;;;;;28.40;21.63;;;7.40;99.90;;;;;;5069605;28;20044;-85
2024/01/30 06:34:09;;;;;;;26.27;21.27;;;7.50;99.90;;;;;;5068687;28;20500;-84
2024/01/30 06:36:35;;;;;;;26.63;21.75;;;7.50;99.90;;;;;;5050325;28;20472;-84
2024/01/30 06:39:02;;;;;;;23.58;21.15;;;7.50;99.90;;;;;;5051292;28;20044;-85
2024/01/30 06:41:28;;;;;;;24.10;20.95;;;7.50;99.90;;;;;;5049122;28;20041;-85
2024/01/30 06:43:54;;;;;;;25.23;20.83;;;7.60;99.90;;;;;;5033804;28;20051;-84
2024/01/30 06:46:19;;;;;;;27.75;21.17;;;7.60;99.90;;;;;;5050277;28;20033;-84
2024/01/30 06:48:45;;;;;;;24.40;21.35;;;7.60;99.90;;;;;;5050626;28;20043;-83
2024/01/30 06:51:12;;;;;;;24.08;21.02;;;7.60;99.90;;;;;;5050292;28;20439;-84
2024/01/30 06:53:37;;;;;;;23.90;21.30;;;7.60;99.90;;;;;;5032742;28;20124;-85
2024/01/30 06:56:03;;;;;;;24.70;21.83;;;7.60;99.90;;;;;;5066988;28;20119;-84
2024/01/30 06:58:29;;;;;;;24.35;21.58;;;7.60;99.90;;;;;;5065771;28;20105;-85
2024/01/30 07:00:55;;;;;;;24.02;20.90;;;7.60;99.90;;;;;;5036422;28;20489;-85
2024/01/30 07:03:21;;;;;;;24.40;21.33;;;7.70;99.90;;;;;;5025594;28;20407;-85
2024/01/30 07:05:47;;;;;;;24.23;19.02;;;7.70;99.90;;;;;;5050351;28;20055;-84
2024/01/30 07:08:13;;;;;;;26.05;20.00;;;7.70;99.90;;;;;;5041417;28;20452;-84
2024/01/30 07:10:38;;;;;;;24.42;21.15;;;7.70;99.90;;;;;;5039856;28;20036;-85
2024/01/30 07:13:05;;;;;;;22.38;19.98;;;7.70;99.90;;;;;;5031354;28;20424;-85
2024/01/30 07:15:31;;;;;;;24.15;20.42;;;7.80;99.90;;;;;;5063933;28;20374;-85
2024/01/30 07:17:57;;;;;;;22.77;20.13;;;7.70;99.90;;;;;;5061370;28;20059;-84
2024/01/30 07:20:22;;;;;;;26.00;20.27;;;7.70;99.90;;;;;;5043787;28;20059;-84
2024/01/30 07:22:48;;;;;;;25.55;20.58;;;7.70;99.90;;;;;;5028010;28;20155;-84
2024/01/30 07:25:14;;;;;;;23.25;19.88;;;7.80;99.90;;;;;;5030495;28;20456;-84
2024/01/30 07:28:05;;;;;;;23.38;20.88;;;7.80;99.90;;;;;;5123683;27;20476;-85
2024/01/30 07:30:31;;;;;;;24.92;21.20;;;7.80;99.90;;;;;;5087237;28;20036;-85
2024/01/30 07:32:57;;;;;;;24.40;21.13;;;7.80;99.90;;;;;;5123890;27;20490;-85
2024/01/30 07:35:22;;;;;;;24.63;20.48;;;7.80;99.90;;;;;;5104362;28;20086;-85
2024/01/30 07:37:48;;;;;;;25.48;21.42;;;7.80;99.90;;;;;;5089082;28;20048;-85
2024/01/30 07:40:14;;;;;;;24.85;20.42;;;7.80;99.90;;;;;;5087102;28;20032;-85
2024/01/30 07:42:40;;;;;;;24.42;21.10;;;7.80;99.90;;;;;;5092121;28;20640;-86
2024/01/30 07:45:06;;;;;;;23.00;20.50;;;7.80;99.90;;;;;;5088677;27;20055;-85
2024/01/30 07:47:32;;;;;;;24.30;20.73;;;7.80;99.90;;;;;;5103413;28;20054;-85
2024/01/30 07:49:58;;;;;;;23.80;21.02;;;7.80;99.90;;;;;;5118071;27;20461;-85
2024/01/30 07:52:23;;;;;;;22.95;20.42;;;7.80;99.90;;;;;;5106925;28;20088;-86
2024/01/30 07:54:50;;;;;;;24.30;20.00;;;7.80;99.90;;;;;;5124541;27;20399;-85
2024/01/30 07:57:16;;;;;;;22.00;19.70;;;7.70;99.90;;;;;;5116476;28;20040;-85
2024/01/30 07:59:44;;;;;;;23.77;20.65;;;7.80;99.90;;;;;;5107458;28;20049;-85
2024/01/30 08:02:10;;;;;;;25.63;21.92;;;7.80;99.90;;;;;;5086636;28;20411;-86
2024/01/30 08:04:35;;;;;;;24.30;21.02;;;7.80;99.90;;;;;;5105151;28;20035;-85
2024/01/30 08:07:01;;;;;;;23.60;20.80;;;7.80;99.90;;;;;;5124748;28;20390;-86
2024/01/30 08:09:27;;;;;;;22.50;20.10;;;7.80;99.90;;;;;;5090298;28;20091;-85
2024/01/30 08:11:52;;;;;;;22.40;19.98;;;7.80;99.90;;;;;;5105776;28;20039;-85
2024/01/30 08:14:18;;;;;;;22.73;20.30;;;7.80;99.90;;;;;;5103576;28;20040;-85
2024/01/30 08:16:44;;;;;;;23.80;20.58;;;7.80;99.90;;;;;;5090051;28;20043;-83
2024/01/30 08:19:09;;;;;;;21.52;19.30;;;7.80;99.90;;;;;;5124601;28;20127;-83
2024/01/30 08:21:36;;;;;;;23.88;20.85;;;7.80;99.90;;;;;;5106928;28;20092;-82
2024/01/30 08:24:05;;;;;;;23.02;20.15;;;7.80;99.90;;;;;;5089814;28;20039;-84
2024/01/30 08:26:32;;;;;;;24.58;20.80;;;7.90;99.90;;;;;;5089600;28;20063;-83
2024/01/30 08:28:58;;;;;;;24.90;19.77;;;7.90;99.90;;;;;;5108472;28;20044;-83
2024/01/30 08:31:24;;;;;;;23.67;19.73;;;8.00;99.90;;;;;;5081193;28;20032;-83
2024/01/30 08:33:49;;;;;;;22.92;19.95;;;8.10;99.90;;;;;;5122264;28;20039;-82
2024/01/30 08:36:16;;;;;;;22.10;19.73;;;8.10;99.90;;;;;;5105591;28;20517;-83
2024/01/30 08:38:42;;;;;;;22.73;19.30;;;8.20;99.90;;;;;;5078264;28;20040;-83
2024/01/30 08:41:08;;;;;;;24.48;18.75;;;8.20;99.90;;;;;;5093358;28;20108;-83
2024/01/30 08:43:33;;;;;;;21.80;18.92;;;8.30;99.90;;;;;;5093207;28;20039;-83
2024/01/30 08:46:00;;;;;;;23.35;19.45;;;8.30;99.90;;;;;;5074383;28;20131;-83
2024/01/30 08:48:26;;;;;;;22.95;19.60;;;8.40;99.90;;;;;;5109709;28;20031;-85
2024/01/30 08:50:51;;;;;;;20.85;18.55;;;8.40;99.90;;;;;;5085873;28;20047;-85
2024/01/30 08:53:17;;;;;;;22.65;19.67;;;8.50;99.90;;;;;;5091131;28;20035;-85
2024/01/30 08:55:43;;;;;;;23.65;19.15;;;8.60;99.90;;;;;;5093983;28;20055;-85
2024/01/30 08:58:08;;;;;;;22.85;19.48;;;8.60;99.90;;;;;;5093319;28;20047;-85
2024/01/30 09:00:34;;;;;;;25.27;19.60;;;8.60;99.90;;;;;;5073572;28;20499;-85
2024/01/30 09:03:00;;;;;;;22.75;19.20;;;8.70;99.90;;;;;;5092580;28;20475;-83
2024/01/30 09:05:25;;;;;;;22.20;19.75;;;8.70;99.90;;;;;;5094202;28;20476;-84
2024/01/30 09:07:51;;;;;;;23.92;19.92;;;8.80;99.90;;;;;;5089690;28;20484;-83
2024/01/30 09:10:16;;;;;;;25.00;19.20;;;8.80;99.90;;;;;;5095882;28;20536;-83
2024/01/30 09:12:42;;;;;;;23.90;19.35;;;8.90;99.90;;;;;;5094295;28;20035;-84
2024/01/30 09:15:08;;;;;;;20.88;18.45;;;9.00;99.90;;;;;;5091058;28;20154;-83
2024/01/30 09:17:34;;;;;;;21.67;19.33;;;9.00;99.90;;;;;;5107966;28;20050;-83
2024/01/30 09:20:00;;;;;;;23.65;19.23;;;9.10;99.90;;;;;;5096329;28;20035;-82
2024/01/30 09:22:25;;;;;;;21.80;18.38;;;9.20;99.90;;;;;;5096102;28;20408;-84
2024/01/30 09:24:51;;;;;;;22.30;17.98;;;9.30;99.90;;;;;;5088368;28;20130;-82
2024/01/30 09:27:17;;;;;;;19.92;17.27;;;9.40;99.90;;;;;;5089894;28;20056;-82
2024/01/30 09:29:42;;;;;;;22.60;17.65;;;9.60;99.90;;;;;;5070048;28;20422;-83
2024/01/30 09:32:08;;;;;;;23.70;18.27;;;9.70;99.90;;;;;;5088386;28;20097;-83
2024/01/30 09:34:34;;;;;;;20.25;18.13;;;9.80;99.90;;;;;;5089074;28;20047;-85
2024/01/30 09:37:00;;;;;;;21.58;18.63;;;9.80;99.90;;;;;;5067588;28;20414;-85
2024/01/30 09:39:26;;;;;;;22.83;17.83;;;9.90;99.90;;;;;;5087608;28;20048;-84
2024/01/30 09:42:21;;;;;;;21.27;18.02;;;9.90;99.90;;;;;;5072165;28;20444;-86
2024/01/30 09:44:50;;;;;;;21.42;18.17;;;9.90;99.90;;;;;;5066917;28;20047;-86
2024/01/30 09:47:17;;;;;;;19.98;17.52;;;10.00;99.90;;;;;;5064660;28;20105;-84
2024/01/30 09:49:44;;;;;;;21.27;17.80;;;10.00;99.90;;;;;;5057350;28;21863;-85
2024/01/30 09:52:10;;;;;;;20.80;18.42;;;10.00;99.90;;;;;;5081620;28;20036;-86
2024/01/30 09:54:37;;;;;;;22.05;18.45;;;10.00;99.90;;;;;;5080853;28;20036;-85
2024/01/30 09:57:04;;;;;;;21.70;17.90;;;10.10;99.90;;;;;;5081236;28;20062;-85
2024/01/30 09:59:29;;;;;;;20.83;18.63;;;10.10;99.90;;;;;;5064915;28;20049;-84
2024/01/30 10:01:58;;;;;;;22.27;18.48;;;10.10;99.90;;;;;;5069267;28;20067;-85
2024/01/30 10:04:24;;;;;;;20.02;17.88;;;10.10;99.90;;;;;;5068879;28;20039;-85
2024/01/30 10:06:51;;;;;;;21.70;18.98;;;10.20;99.90;;;;;;5080505;28;20048;-85
2024/01/30 10:09:16;;;;;;;23.23;18.83;;;10.10;99.90;;;;;;5085186;28;20119;-84
2024/01/30 10:11:42;;;;;;;22.85;18.60;;;10.20;99.90;;;;;;5085196;28;20119;-84
2024/01/30 10:14:09;;;;;;;21.75;18.20;;;10.20;99.90;;;;;;5086155;28;20115;-84
2024/01/30 10:16:35;;;;;;;24.42;18.85;;;10.20;99.90;;;;;;5063891;28;20055;-84
2024/01/30 10:19:01;;;;;;;22.85;18.17;;;10.20;99.90;;;;;;5088154;28;20047;-85
2024/01/30 10:21:27;;;;;;;20.45;17.48;;;10.20;99.90;;;;;;5070699;28;20044;-85
2024/01/30 10:23:52;;;;;;;20.52;18.33;;;10.20;99.90;;;;;;5085323;28;20041;-84
2024/01/30 10:26:18;;;;;;;21.10;18.52;;;10.20;99.90;;;;;;5094922;28;20055;-84
2024/01/30 10:28:44;;;;;;;21.95;18.30;;;10.20;99.90;;;;;;5109732;28;20047;-85
2024/01/30 10:31:09;;;;;;;22.00;18.88;;;10.20;99.90;;;;;;5089709;28;20528;-84
2024/01/30 10:33:35;;;;;;;20.55;17.55;;;10.20;99.90;;;;;;5068010;28;20066;-84
2024/01/30 10:36:02;;;;;;;27.35;18.15;;;10.20;99.90;;;;;;5078679;28;20487;-84
2024/01/30 10:38:30;;;;;;;22.77;17.80;;;10.20;99.90;;;;;;5076360;28;20453;-85
2024/01/30 10:41:01;;;;;;;21.70;18.92;;;10.20;99.90;;;;;;5108047;27;20078;-85
2024/01/30 10:43:35;;;;;;;22.73;19.15;;;10.30;99.90;;;;;;5073822;28;20124;-85
2024/01/30 10:46:21;;;;;;;21.20;17.95;;;10.30;99.90;;;;;;5093155;28;20415;-84
2024/01/30 10:48:57;;;;;;;22.25;18.55;;;10.40;99.90;;;;;;5087705;28;20172;-84
2024/01/30 10:51:25;;;;;;;23.15;18.80;;;10.50;99.90;;;;;;5089582;28;20038;-84
2024/01/30 10:53:50;;;;;;;23.30;18.67;;;10.50;99.90;;;;;;5076693;28;20047;-85
2024/01/30 10:56:17;;;;;;;24.38;19.05;;;10.50;99.90;;;;;;5093041;28;20548;-85
2024/01/30 10:58:42;;;;;;;23.30;18.50;;;10.60;99.90;;;;;;5099140;28;20185;-82
2024/01/30 11:01:09;;;;;;;24.63;18.15;;;10.60;99.90;;;;;;5082061;28;20118;-84
2024/01/30 11:03:36;;;;;;;21.50;17.42;;;10.70;99.90;;;;;;5075086;28;20880;-82
2024/01/30 11:06:03;;;;;;;17.80;15.10;;;10.70;99.90;;;;;;5074989;28;20067;-83
2024/01/30 11:08:31;;;;;;;23.23;15.95;;;10.70;99.90;;;;;;5071767;28;20031;-83
2024/01/30 11:10:58;;;;;;;19.75;17.15;;;10.70;99.90;;;;;;5073635;28;20057;-82
2024/01/30 11:13:34;;;;;;;19.90;16.50;;;10.80;99.90;;;;;;5087218;28;20043;-83
2024/01/30 11:16:06;;;;;;;19.85;16.40;;;10.80;99.90;;;;;;5081260;28;20191;-85
2024/01/30 11:18:33;;;;;;;18.17;13.65;;;10.80;99.90;;;;;;5091399;28;20047;-83
2024/01/30 11:21:04;;;;;;;18.70;14.73;;;10.90;99.90;;;;;;5078324;28;20044;-81
2024/01/30 11:23:31;;;;;;;18.45;14.48;;;10.90;99.90;;;;;;5074238;28;20595;-84
2024/01/30 11:25:57;;;;;;;15.55;13.75;;;10.90;99.90;;;;;;5087364;28;20066;-81
2024/01/30 11:28:23;;;;;;;14.18;11.85;;;10.90;99.90;;;;;;5088243;28;20436;-81
2024/01/30 11:30:50;;;;;;;14.98;13.13;;;10.70;99.90;;;;;;5069371;28;20067;-84
2024/01/30 11:33:30;;;;;;;14.70;12.85;;;10.70;99.90;;;;;;5075093;28;20051;-84
2024/01/30 11:35:59;;;;;;;16.83;12.57;;;10.70;99.90;;;;;;5073511;28;20114;-82
2024/01/30 11:38:27;;;;;;;16.55;12.27;;;10.60;99.90;;;;;;5084246;28;20476;-82
2024/01/30 11:40:56;;;;;;;12.00;10.30;;;10.60;99.90;;;;;;5088289;28;20047;-82
2024/01/30 11:43:21;;;;;;;11.82;10.18;;;10.60;99.90;;;;;;5083755;28;20418;-84
2024/01/30 11:45:47;;;;;;;13.75;10.95;;;10.60;99.90;;;;;;5078664;28;20134;-82
2024/01/30 11:48:13;;;;;;;13.98;9.38;;;10.70;99.90;;;;;;5068649;28;20124;-85
2024/01/30 11:50:40;;;;;;;10.50;9.18;;;10.70;99.90;;;;;;5099244;28;20486;-84
2024/01/30 11:53:06;;;;;;;9.90;8.90;;;10.60;99.90;;;;;;5060385;28;20119;-81
2024/01/30 11:55:33;;;;;;;11.65;8.88;;;10.50;99.90;;;;;;5098623;28;20028;-84
2024/01/30 11:57:59;;;;;;;9.95;8.98;;;10.50;99.90;;;;;;5064092;28;20703;-81
2024/01/30 12:00:25;;;;;;;9.75;8.77;;;10.50;99.90;;;;;;5069580;28;20677;-83
2024/01/30 12:02:55;;;;;;;34.20;22.92;;;10.50;99.90;;;;;;5102984;28;20043;-82
2024/01/30 12:05:21;;;;;;;9.38;8.52;;;10.40;99.90;;;;;;5081149;28;20429;-82
2024/01/30 12:07:47;;;;;;;8.38;7.78;;;10.40;99.90;;;;;;5065056;28;20404;-83
2024/01/30 12:10:14;;;;;;;8.70;8.00;;;10.40;99.90;;;;;;5070647;28;20050;-84
2024/01/30 12:12:41;;;;;;;8.48;7.78;;;10.30;99.90;;;;;;5078813;28;20061;-84
2024/01/30 12:15:07;;;;;;;8.75;8.05;;;10.30;99.90;;;;;;5083233;28;20039;-82
2024/01/30 12:17:37;;;;;;;8.32;7.53;;;10.30;99.90;;;;;;5088090;28;20576;-84
2024/01/30 12:20:07;;;;;;;8.30;7.70;;;10.30;99.90;;;;;;5074244;28;20035;-84
2024/01/30 12:22:52;;;;;;;8.38;7.70;;;10.30;99.90;;;;;;5080894;28;20051;-83
2024/01/30 12:25:20;;;;;;;9.23;8.50;;;10.30;99.90;;;;;;5098299;28;20425;-84
2024/01/30 12:27:50;;;;;;;9.23;8.45;;;10.40;99.90;;;;;;5074272;28;20415;-84
2024/01/30 12:30:16;;;;;;;8.93;8.23;;;10.40;99.90;;;;;;5067338;28;20042;-83
2024/01/30 12:32:47;;;;;;;7.70;7.20;;;10.30;99.90;;;;;;5076001;28;20042;-84